(°C)
20°
20°
19°
19°
20°
22°
24°
(°C)
19°
19°
18°
18°
19°
21°
22°
ΒΒΔ
Β
Β
Β
Β
Β
Β
(χλμ / ω)
10-21
10-22
10-22
10-22
11-22
11-22
11-21
(χιλιοστά)
0
0
0
0
0
0
0
(%)
3
2
1
1
1
0
0

Ανύψωση ήλιου

/ -22.1°
sun-icon
UV 8
05:10
20:20
Αύξων μηνίσκος (φάση σελήνης) (60°)
10:16
23:47

METAR για Barnstable (KHYA)

Χρόνος Συνθήκες Θερμοκρασία/
Σημείο δρόσου
Άνεμος Ορατότητα Καιρός Νέφη Πίεση Αλλαγή Ανεπεξέργαστο
VFR 20.6°C / 11.7°C 330º 7kt >10km - Clear 1016 - KHYA 040556Z AUTO 33007KT 10SM CLR 21/12 A3002 RMK AO2 SLP167 T02060117 10228 20161 53007 $
21.1°C / 11.7°C 320º 5kt >10km - 1016 - KHYA 040456Z AUTO 32005KT 10SM 21/12 A3001 RMK AO2 SLP162 T02110117 402780161 $
16.1°C / 14.4°C variable 0kt >10km - 1016 - KHYA 040356Z AUTO 00000KT 9SM 16/14 A3001 RMK AO2 SLP162 T01610144 $
18.3°C / 14.4°C variable 0kt >10km - 1016 - KHYA 040256Z AUTO 00000KT 10SM 18/14 A3000 RMK AO2 SLP160 T01830144 51013 $
VFR 20°C / 15°C 240º 4kt >10km - Clear 1015 - KHYA 040156Z 24004KT 10SM CLR 20/15 A3000 RMK AO2 SLP159 T02000150
VFR 20.6°C / 15°C 240º 5kt >10km - Clear 1015 - KHYA 040056Z 24005KT 10SM CLR 21/15 A2998 RMK AO2 SLP153 T02060150
VFR 22.8°C / 15°C 220º 6kt >10km - Clear 1014 - KHYA 032356Z 22006KT 10SM CLR 23/15 A2997 RMK AO2 SLP148 T02280150 10278 20228 51007
VFR 25.6°C / 15°C 230º 8kt >10km - Clear 1014 - KHYA 032256Z 23008KT 10SM CLR 26/15 A2997 RMK AO2 SLP148 T02560150
VFR 26.7°C / 15.6°C 230º 9kt >10km - Clear 1014 - KHYA 032156Z 23009KT 10SM CLR 27/16 A2995 RMK AO2 SLP142 T02670156
VFR 26.7°C / 15.6°C 220º 10kt >10km - Clear 1014 - KHYA 032056Z 22010KT 10SM CLR 27/16 A2994 RMK AO2 SLP140 T02670156 56007
VFR 27.2°C / 15°C 220º 9kt >10km - Clear 1014 - KHYA 031956Z 22009KT 10SM CLR 27/15 A2995 RMK AO2 SLP143 T02720150
VFR 26.1°C / 17.2°C 220º 12kt >10km - Clear 1014 - KHYA 031856Z 22012KT 10SM CLR 26/17 A2995 RMK AO2 SLP143 T02610172 $
VFR 24.4°C / 17.8°C 210º 11kt >10km - Clear 1014 - KHYA 031756Z 21011KT 10SM CLR 24/18 A2996 RMK AO2 SLP147 T02440178 10278 20222 58004 $
VFR 25.6°C / 16.1°C 260º 6kt >10km - Clear 1014 - KHYA 031656Z 26006KT 10SM CLR 26/16 A2997 RMK AO2 SLP148 T02560161 $
VFR 25°C / 17.2°C 170º 4kt >10km - Clear 1015 - KHYA 031556Z 17004KT 10SM CLR 25/17 A2998 RMK AO2 SLP153 T02500172 $
VFR 26.1°C / 12.8°C 300º 5kt >10km - Few Clouds 7500ft 1015 - KHYA 031456Z 30005KT 10SM FEW075 26/13 A2998 RMK AO2 SLP152 T02610128 53005 $
VFR 27.8°C / 12.8°C 350º 5kt >10km - Scattered Clouds 8000ft
Scattered Clouds 9000ft
1014 - KHYA 031356Z 35005KT 10SM SCT080 SCT090 28/13 A2996 RMK AO2 SLP147 T02780128 $
VFR 24.4°C / 17.8°C 340º 3kt >10km - Broken Clouds 7000ft 1014 - KHYA 031256Z 34003KT 10SM BKN070 24/18 A2996 RMK AO2 SLP146 T02440178 $
VFR 22.8°C / 18.3°C 260º 3kt >10km - Overcast 6500ft 1014 - KHYA 031156Z 26003KT 10SM OVC065 23/18 A2996 RMK AO2 SLP146 70004 T02280183 10228 20211 53015
VFR 22.2°C / 20°C variable 0kt >10km - Clear 1013 - KHYA 031056Z 00000KT 10SM CLR 22/20 A2994 RMK AO2 SLP139 T02220200
VFR 21.1°C / 20.6°C variable 0kt >10km - Few Clouds 12000ft 1013 - KHYA 030956Z 00000KT 7SM FEW120 21/21 A2993 RMK AO2 SLP137 T02110206
VFR 21.1°C / 20.6°C variable 0kt 9700m Mist Vertical Visibility of 0ft. - KHYA 030946Z 00000KT 6SM BR FEW120 21/21 A2993 RMK AO2 T02110206
IFR 21.1°C / 20°C 200º 3kt 3200m - Few Clouds 400ft 1013 - KHYA 030856Z 20003KT 2SM FEW004 21/20 A2992 RMK AO2 SFC VIS 8 SLP131 T02110200 56001
IFR 21.1°C / 20°C 230º 4kt 3200m - Few Clouds 400ft
Scattered Clouds 7000ft
- KHYA 030834Z 23004KT 2SM FEW004 SCT070 21/20 A2991 RMK AO2 SFC VIS 8 T02110200

VFR

20.6°C / 11.7°C

[Περισσότερο]
Άνεμος 330º 7kt
Ορατότητα >10km
Καιρός -
Νέφη Clear
Πίεση 1016
Αλλαγή -
Ανεπεξέργαστο KHYA 040556Z AUTO 33007KT 10SM CLR 21/12 A3002 RMK AO2 SLP167 T02060117 10228 20161 53007 $

21.1°C / 11.7°C

[Περισσότερο]
Άνεμος 320º 5kt
Ορατότητα >10km
Καιρός -
Νέφη
Πίεση 1016
Αλλαγή -
Ανεπεξέργαστο KHYA 040456Z AUTO 32005KT 10SM 21/12 A3001 RMK AO2 SLP162 T02110117 402780161 $

16.1°C / 14.4°C

[Περισσότερο]
Άνεμος variable 0kt
Ορατότητα >10km
Καιρός -
Νέφη
Πίεση 1016
Αλλαγή -
Ανεπεξέργαστο KHYA 040356Z AUTO 00000KT 9SM 16/14 A3001 RMK AO2 SLP162 T01610144 $

18.3°C / 14.4°C

[Περισσότερο]
Άνεμος variable 0kt
Ορατότητα >10km
Καιρός -
Νέφη
Πίεση 1016
Αλλαγή -
Ανεπεξέργαστο KHYA 040256Z AUTO 00000KT 10SM 18/14 A3000 RMK AO2 SLP160 T01830144 51013 $

VFR

20°C / 15°C

[Περισσότερο]
Άνεμος 240º 4kt
Ορατότητα >10km
Καιρός -
Νέφη Clear
Πίεση 1015
Αλλαγή -
Ανεπεξέργαστο KHYA 040156Z 24004KT 10SM CLR 20/15 A3000 RMK AO2 SLP159 T02000150

VFR

20.6°C / 15°C

[Περισσότερο]
Άνεμος 240º 5kt
Ορατότητα >10km
Καιρός -
Νέφη Clear
Πίεση 1015
Αλλαγή -
Ανεπεξέργαστο KHYA 040056Z 24005KT 10SM CLR 21/15 A2998 RMK AO2 SLP153 T02060150

VFR

22.8°C / 15°C

[Περισσότερο]
Άνεμος 220º 6kt
Ορατότητα >10km
Καιρός -
Νέφη Clear
Πίεση 1014
Αλλαγή -
Ανεπεξέργαστο KHYA 032356Z 22006KT 10SM CLR 23/15 A2997 RMK AO2 SLP148 T02280150 10278 20228 51007

VFR

25.6°C / 15°C

[Περισσότερο]
Άνεμος 230º 8kt
Ορατότητα >10km
Καιρός -
Νέφη Clear
Πίεση 1014
Αλλαγή -
Ανεπεξέργαστο KHYA 032256Z 23008KT 10SM CLR 26/15 A2997 RMK AO2 SLP148 T02560150

VFR

26.7°C / 15.6°C

[Περισσότερο]
Άνεμος 230º 9kt
Ορατότητα >10km
Καιρός -
Νέφη Clear
Πίεση 1014
Αλλαγή -
Ανεπεξέργαστο KHYA 032156Z 23009KT 10SM CLR 27/16 A2995 RMK AO2 SLP142 T02670156

VFR

26.7°C / 15.6°C

[Περισσότερο]
Άνεμος 220º 10kt
Ορατότητα >10km
Καιρός -
Νέφη Clear
Πίεση 1014
Αλλαγή -
Ανεπεξέργαστο KHYA 032056Z 22010KT 10SM CLR 27/16 A2994 RMK AO2 SLP140 T02670156 56007

VFR

27.2°C / 15°C

[Περισσότερο]
Άνεμος 220º 9kt
Ορατότητα >10km
Καιρός -
Νέφη Clear
Πίεση 1014
Αλλαγή -
Ανεπεξέργαστο KHYA 031956Z 22009KT 10SM CLR 27/15 A2995 RMK AO2 SLP143 T02720150

VFR

26.1°C / 17.2°C

[Περισσότερο]
Άνεμος 220º 12kt
Ορατότητα >10km
Καιρός -
Νέφη Clear
Πίεση 1014
Αλλαγή -
Ανεπεξέργαστο KHYA 031856Z 22012KT 10SM CLR 26/17 A2995 RMK AO2 SLP143 T02610172 $

VFR

24.4°C / 17.8°C

[Περισσότερο]
Άνεμος 210º 11kt
Ορατότητα >10km
Καιρός -
Νέφη Clear
Πίεση 1014
Αλλαγή -
Ανεπεξέργαστο KHYA 031756Z 21011KT 10SM CLR 24/18 A2996 RMK AO2 SLP147 T02440178 10278 20222 58004 $

VFR

25.6°C / 16.1°C

[Περισσότερο]
Άνεμος 260º 6kt
Ορατότητα >10km
Καιρός -
Νέφη Clear
Πίεση 1014
Αλλαγή -
Ανεπεξέργαστο KHYA 031656Z 26006KT 10SM CLR 26/16 A2997 RMK AO2 SLP148 T02560161 $

VFR

25°C / 17.2°C

[Περισσότερο]
Άνεμος 170º 4kt
Ορατότητα >10km
Καιρός -
Νέφη Clear
Πίεση 1015
Αλλαγή -
Ανεπεξέργαστο KHYA 031556Z 17004KT 10SM CLR 25/17 A2998 RMK AO2 SLP153 T02500172 $

VFR

26.1°C / 12.8°C

[Περισσότερο]
Άνεμος 300º 5kt
Ορατότητα >10km
Καιρός -
Νέφη Few Clouds 7500ft
Πίεση 1015
Αλλαγή -
Ανεπεξέργαστο KHYA 031456Z 30005KT 10SM FEW075 26/13 A2998 RMK AO2 SLP152 T02610128 53005 $

VFR

27.8°C / 12.8°C

[Περισσότερο]
Άνεμος 350º 5kt
Ορατότητα >10km
Καιρός -
Νέφη Scattered Clouds 8000ft
Scattered Clouds 9000ft
Πίεση 1014
Αλλαγή -
Ανεπεξέργαστο KHYA 031356Z 35005KT 10SM SCT080 SCT090 28/13 A2996 RMK AO2 SLP147 T02780128 $

VFR

24.4°C / 17.8°C

[Περισσότερο]
Άνεμος 340º 3kt
Ορατότητα >10km
Καιρός -
Νέφη Broken Clouds 7000ft
Πίεση 1014
Αλλαγή -
Ανεπεξέργαστο KHYA 031256Z 34003KT 10SM BKN070 24/18 A2996 RMK AO2 SLP146 T02440178 $

VFR

22.8°C / 18.3°C

[Περισσότερο]
Άνεμος 260º 3kt
Ορατότητα >10km
Καιρός -
Νέφη Overcast 6500ft
Πίεση 1014
Αλλαγή -
Ανεπεξέργαστο KHYA 031156Z 26003KT 10SM OVC065 23/18 A2996 RMK AO2 SLP146 70004 T02280183 10228 20211 53015

VFR

22.2°C / 20°C

[Περισσότερο]
Άνεμος variable 0kt
Ορατότητα >10km
Καιρός -
Νέφη Clear
Πίεση 1013
Αλλαγή -
Ανεπεξέργαστο KHYA 031056Z 00000KT 10SM CLR 22/20 A2994 RMK AO2 SLP139 T02220200

VFR

21.1°C / 20.6°C

[Περισσότερο]
Άνεμος variable 0kt
Ορατότητα >10km
Καιρός -
Νέφη Few Clouds 12000ft
Πίεση 1013
Αλλαγή -
Ανεπεξέργαστο KHYA 030956Z 00000KT 7SM FEW120 21/21 A2993 RMK AO2 SLP137 T02110206

VFR

21.1°C / 20.6°C

[Περισσότερο]
Άνεμος variable 0kt
Ορατότητα 9700m
Καιρός Mist
Νέφη Vertical Visibility of 0ft.
Πίεση
Αλλαγή -
Ανεπεξέργαστο KHYA 030946Z 00000KT 6SM BR FEW120 21/21 A2993 RMK AO2 T02110206

IFR

21.1°C / 20°C

[Περισσότερο]
Άνεμος 200º 3kt
Ορατότητα 3200m
Καιρός -
Νέφη Few Clouds 400ft
Πίεση 1013
Αλλαγή -
Ανεπεξέργαστο KHYA 030856Z 20003KT 2SM FEW004 21/20 A2992 RMK AO2 SFC VIS 8 SLP131 T02110200 56001

IFR

21.1°C / 20°C

[Περισσότερο]
Άνεμος 230º 4kt
Ορατότητα 3200m
Καιρός -
Νέφη Few Clouds 400ft
Scattered Clouds 7000ft
Πίεση
Αλλαγή -
Ανεπεξέργαστο KHYA 030834Z 23004KT 2SM FEW004 SCT070 21/20 A2991 RMK AO2 SFC VIS 8 T02110200

TAF για Barnstable (KHYA)

From till


From till Wind 240º 6kt. Visibility 10km or more. Sky Clear.
From till Wind 340º 7kt. Visibility 10km or more. Sky Clear.
From till Wind 20º 6kt. Visibility 10km or more. Few Clouds 20000ft.
From till Wind 160º 7kt. Visibility 10km or more. Few Clouds 15000ft.
From till Wind 230º 8kt. Visibility 10km or more. Few Clouds 12000ft.

Ανεπεξέργαστο: KHYA 040520Z 0406/0506 24006KT P6SM SKC FM040700 34007KT P6SM SKC FM041600 02006KT P6SM FEW200 FM041900 16007KT P6SM FEW150 FM050500 23008KT P6SM FEW120

Ραντάρ και πρόγνωση υετού μικρής διάρκειας για Barnstable

Ψιλοβρέχει
Φως
Μέτρια
Βαριά
Πολύ βαρύ
Χαλάζι

Ο δείκτης θέσης τοποθετείται στο Barnstable. Αυτή η κινούμενη εικόνα δείχνει την ραντάρ βροχόπτωσης για την τελευταία ώρα, καθώς και 1πρόγνωση h. Το ψιλόβροχο ή το ελαφρύ χιόνι μπορεί να είναι αόρατο για το ραντάρ. Η ένταση της βροχόπτωσης είναι χρωματικά κωδικοποιημένη και κυμαίνεται από γαλάζιο έως πορτοκαλί.

Τρέχουσες εικόνες δορυφόρου για Barnstable, ΗΠΑ

Η ένδειξη τοποθεσίας τοποθετείται στο Barnstable. [Περισσότερο]

Οι δορυφορικές εικόνες σε πραγματικό χρόνο συνδυάζουν ορατό φως κατά τη διάρκεια της ημέρας με υπέρυθρη ακτινοβολία κατά τη διάρκεια της νύχτας. Κατά τη διάρκεια της νύχτας, η εικόνα δεν είναι σκοτεινή μιας και η υπέρυθρη ακτινοβολία μπορεί να εντοπίσει τις διαφορές στη θερμοκρασία. Δυστυχώς, είναι δύσκολο να ξεχωρίσουν οι χαμηλές νεφώσεις και η ομίχλη από τις θερμοκρασίες εδάφους και έτσι μπορεί να είναι σχετικά αόρατα κατά τη διάρκεια της νύχτας. Οι εικόνες από τον δορυφόρο Meteosat για την Ευρώπη ενημερώνονται σε πραγματικό χρόνο κάθε 5 λεπτά. Οι εικόνες από τους δορυφόρους GOES-16/GOES-17 (Βόρεια & Λατινική Αμερική) και Himawari (Ασία) ενημερώνονται κάθε 10 λεπτά.

Επιστροφή στην κορυφή